• Join FlightAware (Why Join?)
  • Login
  • US Flag 
10:01PM EST


 

Airport Tracker/Info


-or-


 

Live Flight TrackerFlight Track Log ✈ UAL109 ✈ 06-Jul-2013 ✈ EGPH / EDI - KEWR

Flight Track Log - Related Links

Times and Time Zones

All times are in EDT time to prevent confusion due to time zone crossing. See the UAL109 flight status page for this flight to view local times or setup timezone preferences in your user account.

Time Position Orientation Groundspeed Altitude Reporting Facility
EDT Latitude Longitude Course Direction KTS MPH feet Rate Location/Type
07:09AM 55.9490 -3.3680 275° West 1 1  Level FlightAware
07:13AM 55.9500 -3.3690 331° Northwest 8 9 120 Level FlightAware
07:14AM 55.9510 -3.3670 48° Northeast 14 16 180 Level FlightAware
07:14AM 55.9520 -3.3640 59° Northeast 14 16 180 Level FlightAware
07:15AM 55.9530 -3.3620 48° Northeast 13 15 240 Level FlightAware
07:18AM 55.9860 -3.8619 276° West  Level FlightAware Approximate
07:19AM 55.9972 -4.0523 276° West  Level FlightAware Approximate
07:19AM 55.9500 -3.3800 276° West 160 184  Level FlightAware
07:20AM 55.9380 -3.4150 239° Southwest 166 191 1,400 2,580 Climbing FlightAware
07:20AM 55.9290 -3.4390 236° Southwest 169 194 2,200 2,160 Climbing FlightAware
07:21AM 55.9210 -3.4630 239° Southwest 172 198 2,900 1,560 Climbing FlightAware
07:21AM 55.9090 -3.4990 239° Southwest 201 231 3,500 1,260 Climbing FlightAware
07:21AM 55.9036 -3.5079 239° Southwest 224 258 3,600 1,800 Climbing FlightAware UK
07:21AM 55.9040 -3.5360 256° West 218 251 4,100 1,680 Climbing FlightAware
07:22AM 55.9010 -3.5790 263° West 240 276 4,800 1,920 Climbing FlightAware
07:22AM 55.8930 -3.6410 257° West 255 293 5,900 2,400 Climbing FlightAware
07:22AM 55.8920 -3.6610 265° West 253 291 6,400 2,820 Climbing FlightAware
07:23AM 55.8860 -3.7210 260° West 256 295 7,800 2,700 Climbing FlightAware
07:23AM 55.8800 -3.7770 259° West 264 304 8,900 2,460 Climbing FlightAware
07:24AM 55.8700 -3.8760 260° West 273 314 10,700 1,680 Climbing FlightAware
07:25AM 55.8610 -3.9670 260° West 316 364 11,300 1,380 Climbing FlightAware
07:25AM 55.8510 -4.0640 260° West 333 383 12,500 2,100 Climbing FlightAware
07:26AM 55.8350 -4.1730 255° West 340 391 14,000 2,220 Climbing FlightAware
07:27AM 55.8131 -4.2725 255° West 368 423 15,400 2,220 Climbing FlightAware UK
07:27AM 55.8120 -4.2920 255° West 347 399 15,700 2,280 Climbing FlightAware
07:27AM 55.7890 -4.4000 255° West 351 404 17,200 2,160 Climbing FlightAware
07:27AM 55.7860 -4.4004 255° West 376 433 17,200 1,500 Level FlightAware UK
07:28AM 55.7688 -4.4827 255° West 388 447 18,000 2,040 Climbing FlightAware UK
07:28AM 55.7640 -4.5210 255° West 358 412 18,700 2,100 Climbing FlightAware
07:29AM 55.7410 -4.6350 250° West 366 421 19,900 1,680 Climbing FlightAware
07:30AM 55.7180 -4.7460 250° West 373 429 21,000 1,680 Climbing FlightAware
07:30AM 55.7135 -4.7519 250° West 402 463 21,100 1,920 Climbing FlightAware UK
07:30AM 55.6900 -4.8830 250° West 378 435 22,500 1,680 Climbing FlightAware
07:31AM 55.6650 -4.9990 249° West 385 443 23,500 1,440 Climbing FlightAware
07:32AM 55.6400 -5.1200 250° West 392 451 24,500 1,380 Climbing FlightAware
07:32AM 55.6140 -5.2430 250° West 399 459 25,400 1,320 Climbing FlightAware
07:33AM 55.5870 -5.3720 250° West 403 464 26,400 1,320 Climbing FlightAware
07:34AM 55.5580 -5.5070 249° West 409 471 27,300 1,260 Climbing FlightAware
07:34AM 55.5310 -5.6320 249° West 414 476 28,100 1,200 Climbing FlightAware
07:35AM 55.5069 -5.7298 249° West 448 516 28,800 1,200 Climbing FlightAware UK
07:35AM 55.5040 -5.7570 249° West 419 482 28,900 960 Climbing FlightAware
07:36AM 55.4770 -5.8860 250° West 424 488 29,600 1,080 Climbing FlightAware
07:36AM 55.4441 -6.0183 250° West 462 532 30,400 1,080 Climbing FlightAware UK
07:36AM 55.4470 -6.0190 250° West 428 493 30,400 960 Level FlightAware
07:37AM 55.4160 -6.1630 249° West 431 496 31,100 1,200 Climbing FlightAware
07:38AM 55.3860 -6.2970 249° West 427 491 32,100 1,260 Climbing FlightAware
07:39AM 55.3560 -6.4310 249° West 422 486 32,900 960 Climbing FlightAware
07:39AM 55.3300 -6.5470 249° West 425 489 33,400 780 Climbing FlightAware
07:39AM 55.3285 -6.5396 249° West 460 529 33,400 960 Level FlightAware UK
07:40AM 55.3026 -6.6549 249° West 458 527 34,000 780 Climbing FlightAware UK
07:40AM 55.2980 -6.6900 249° West 423 487 34,000  Level FlightAware
07:41AM 55.2690 -6.8190 249° West 422 486 34,000  Level FlightAware
07:41AM 55.2440 -6.9290 248° West 422 486 34,000  Level FlightAware
07:42AM 55.2156 -7.0365 248° West 458 527 34,000  Level FlightAware UK
07:42AM 55.2100 -7.0730 248° West 423 487 34,000  Level FlightAware
07:43AM 55.1810 -7.2000 248° West 423 487 34,000  Level FlightAware
07:43AM 55.1560 -7.3080 248° West 422 486 34,000  Level FlightAware
07:44AM 55.1280 -7.4139 248° West 458 527 34,000  Level FlightAware UK
07:44AM 55.1260 -7.4350 248° West 420 483 34,000 -480 Level FlightAware
07:44AM 55.1010 -7.5450 248° West 426 490 33,700 -660 Descending FlightAware
07:44AM 55.0974 -7.5442 248° West 466 536 33,600 -1,140 Descending FlightAware UK
07:45AM 55.0750 -7.6387 248° West 462 532 33,100 -840 Descending FlightAware UK
07:45AM 55.0710 -7.6710 248° West 418 481 33,100 -120 Level FlightAware
07:46AM 55.0370 -7.8110 247° West 404 465 33,000 -120 Descending FlightAware
07:47AM 55.0080 -7.9330 248° West 403 464 33,000  Level FlightAware
07:47AM 54.9790 -8.0520 248° West 403 464 33,000  Level FlightAware
07:47AM 54.9756 -8.0550 248° West 450 518 33,000  Level FlightAware UK
07:48AM 54.9537 -8.1448 248° West 450 518 33,000  Level FlightAware UK
07:48AM 54.9470 -8.1860 248° West 408 470 33,000  Level FlightAware
07:49AM 54.9099 -8.3249 248° West 452 520 33,000  Level FlightAware UK
07:49AM 54.9070 -8.3510 248° West 409 471 33,000  Level FlightAware
07:49AM 54.8834 -8.4330 248° West 452 520 33,000  Level FlightAware UK
07:50AM 54.8730 -8.4880 248° West 409 471 33,000  Level FlightAware
07:50AM 54.8430 -8.6090 247° West 410 472 33,000  Level FlightAware
07:51AM 54.8130 -8.7300 247° West 410 472 33,000  Level FlightAware
07:51AM 54.8126 -8.7215 247° West 458 527 33,000  Level FlightAware UK
07:51AM 54.7900 -8.8114 247° West 458 527 33,000  Level FlightAware UK
07:52AM 54.7800 -8.8640 247° West 408 470 33,000  Level FlightAware
07:52AM 54.7490 -8.9850 246° West 405 466 33,000  Level FlightAware
07:53AM 54.7200 -9.1010 247° West 402 463 33,000  Level FlightAware
07:54AM 54.6900 -9.2200 246° West 397 457 33,000  Level FlightAware
07:54AM 54.6610 -9.3330 246° West 394 453 33,000  Level FlightAware
07:55AM 54.6310 -9.4490 246° West 391 450 33,000  Level FlightAware
07:56AM 54.6010 -9.5610 245° Southwest 388 447 33,000  Level FlightAware
07:56AM 54.5720 -9.6730 246° West 381 438 33,000  Level FlightAware
07:57AM 54.5430 -9.7840 246° West 379 436 33,000  Level FlightAware
07:58AM 54.5140 -9.8940 246° West 382 440 33,000  Level FlightAware
07:58AM 54.4800 -10.0190 245° Southwest 384 442 33,000  Level FlightAware
07:59AM 54.4480 -10.1410 246° West 393 452 33,000  Level FlightAware
08:01AM 54.3590 -10.4720 245° Southwest 402 463 33,000  Level FlightAware
08:02AM 54.3220 -10.6060 245° Southwest 402 463 33,000  Level FlightAware
08:03AM 54.2860 -10.7370 245° Southwest 404 465 33,000  Level FlightAware
08:03AM 54.2420 -10.8980 245° Southwest 404 465 33,000  Level FlightAware
08:04AM 54.2100 -11.0130 245° Southwest 407 468 33,000  Level FlightAware
08:05AM 54.1750 -11.1390 245° Southwest 406 467 33,000  Level FlightAware
08:06AM 54.1420 -11.2570 245° Southwest 405 466 33,000  Level FlightAware
08:06AM 54.1060 -11.3850 244° Southwest 404 465 33,000  Level FlightAware
08:07AM 54.0720 -11.5040 244° Southwest 404 465 33,000  Level FlightAware
08:08AM 54.0440 -11.6010 244° Southwest 403 464 33,000  Level FlightAware
08:08AM 54.0120 -11.7150 245° Southwest 403 464 33,000  Level FlightAware
08:09AM 53.9750 -11.8440 244° Southwest 402 463 33,000  Level FlightAware
08:10AM 53.9390 -11.9690 244° Southwest 402 463 33,000  Level FlightAware
08:11AM 53.8880 -12.1410 243° Southwest 401 461 33,000  Level FlightAware
08:12AM 53.8490 -12.2760 244° Southwest 401 461 33,000  Level FlightAware
08:12AM 53.8120 -12.4040 244° Southwest 402 463 33,000  Level FlightAware
08:13AM 53.7790 -12.5160 244° Southwest 401 461 33,000  Level FlightAware
08:14AM 53.7330 -12.6710 243° Southwest 401 461 33,000  Level FlightAware
08:15AM 53.6890 -12.8170 243° Southwest 401 461 33,000  Level FlightAware
08:16AM 53.6530 -12.9370 243° Southwest 400 460 33,000  Level FlightAware
08:16AM 53.6200 -13.0470 243° Southwest 400 460 33,000  Level FlightAware
08:17AM 53.5850 -13.1620 243° Southwest 400 460 33,000 420 Level FlightAware
08:18AM 53.5420 -13.3040 243° Southwest 398 458 33,700 540 Climbing FlightAware
08:19AM 53.4870 -13.4820 243° Southwest 400 460 34,000 180 Climbing FlightAware
08:19AM 53.4570 -13.5780 242° Southwest 397 457 34,000  Level FlightAware
08:20AM 53.4200 -13.7000 243° Southwest 394 453 34,000  Level FlightAware
08:21AM 53.3850 -13.8110 242° Southwest 393 452 34,000  Level FlightAware
08:21AM 53.3510 -13.9180 242° Southwest 391 450 34,000  Level FlightAware
08:22AM 53.3190 -14.0230 243° Southwest 390 449 34,000  Level FlightAware
08:23AM 53.2910 -14.1150 243° Southwest 390 449 34,000  Level FlightAware
08:24AM 53.2370 -14.2820 242° Southwest 389 448 34,000  Level FlightAware
08:24AM 53.2080 -14.3760 243° Southwest 389 448 34,000  Level FlightAware
08:25AM 53.1830 -14.4580 243° Southwest 389 448 34,000  Level FlightAware
08:26AM 53.1490 -14.5670 243° Southwest 389 448 34,000  Level FlightAware
08:26AM 53.1230 -14.6530 243° Southwest 389 448 34,000  Level FlightAware
08:27AM 53.0990 -14.7300 243° Southwest 389 448 34,000  Level FlightAware
08:28AM 53.0650 -14.8420 243° Southwest 389 448 34,000  Level FlightAware
08:28AM 53.0400 -14.9250 243° Southwest 389 448 34,000  Level FlightAware
08:29AM 52.9970 -15.0640 243° Southwest 389 448 34,000  Level FlightAware
08:30AM 52.9720 -15.1470 243° Southwest 389 448 34,000  Level FlightAware
08:31AM 52.9390 -15.2540 243° Southwest 389 448 34,000  Level FlightAware
08:31AM 52.9140 -15.3350 243° Southwest 389 448 34,000  Level FlightAware
08:32AM 52.8810 -15.4410 243° Southwest 389 448 34,000  Level FlightAware
08:33AM 52.8650 -15.4960 244° Southwest 389 448 34,000  Level FlightAware
08:33AM 52.8310 -15.6040 243° Southwest 389 448 34,000  Level FlightAware
08:36AM 52.8577 -15.9755 277° West  Level Estimated
08:37AM 52.8704 -16.1569 277° West  Level Estimated
08:38AM 52.8827 -16.3384 277° West  Level Estimated
08:39AM 52.8948 -16.5200 276° West  Level Estimated
08:40AM 52.9066 -16.7017 276° West  Level Estimated
08:41AM 52.9181 -16.8835 276° West  Level Estimated
08:42AM 52.9294 -17.0654 276° West  Level Estimated
08:43AM 52.9403 -17.2474 276° West  Level Estimated
08:44AM 52.9510 -17.4294 276° West  Level Estimated
08:45AM 52.9614 -17.6116 275° West  Level Estimated
08:46AM 52.9715 -17.7938 275° West  Level Estimated
08:47AM 52.9817 -17.9828 275° West  Level Estimated
08:48AM 52.9916 -18.1720 275° West  Level Estimated
08:49AM 53.0012 -18.3612 275° West  Level Estimated
08:50AM 53.0105 -18.5504 275° West  Level Estimated
08:51AM 53.0195 -18.7398 275° West  Level Estimated
08:52AM 53.0282 -18.9292 274° West  Level Estimated
08:53AM 53.0366 -19.1187 274° West  Level Estimated
08:54AM 53.0447 -19.3083 274° West  Level Estimated
08:55AM 53.0525 -19.4980 274° West  Level Estimated
08:56AM 53.0600 -19.6877 274° West  Level Estimated
08:57AM 53.0672 -19.8775 274° West  Level Estimated
08:58AM 53.0741 -20.0673 274° West  Level Estimated
08:58AM 52.0000 -20.0000 274° West 417 480 34,000  Level ETMS Enhanced Traffic Management System
08:59AM 53.0807 -20.2572 273° West  Level Estimated
09:00AM 53.0870 -20.4472 273° West  Level Estimated
09:01AM 53.0930 -20.6372 273° West  Level Estimated
09:02AM 53.0987 -20.8273 273° West  Level Estimated
09:03AM 53.1041 -21.0174 273° West  Level Estimated
09:04AM 52.0485 -21.3181 273° West 417 480 34,000  Level FlightAware Transoceanic
09:05AM 52.0543 -21.5066 273° West 417 480 34,000  Level FlightAware Transoceanic
09:06AM 52.0597 -21.6952 273° West 417 480 34,000  Level FlightAware Transoceanic
09:07AM 52.0648 -21.8838 272° West 417 480 34,000  Level FlightAware Transoceanic
09:08AM 52.0696 -22.0724 272° West 417 480 34,000  Level FlightAware Transoceanic
09:09AM 52.0742 -22.2611 272° West 417 480 34,000  Level FlightAware Transoceanic
09:10AM 52.0784 -22.4499 272° West 417 480 34,000  Level FlightAware Transoceanic
09:11AM 52.0823 -22.6386 272° West 417 480 34,000  Level FlightAware Transoceanic
09:12AM 52.0860 -22.8274 272° West 417 480 34,000  Level FlightAware Transoceanic
09:13AM 52.0893 -23.0162 272° West 417 480 34,000  Level FlightAware Transoceanic
09:14AM 52.0923 -23.2051 271° West 417 480 34,000  Level FlightAware Transoceanic
09:15AM 52.0950 -23.3939 271° West 417 480 34,000  Level FlightAware Transoceanic
09:16AM 52.0974 -23.5828 271° West 417 480 34,000  Level FlightAware Transoceanic
09:17AM 52.0995 -23.7718 271° West 417 480 34,000  Level FlightAware Transoceanic
09:18AM 52.1014 -23.9607 271° West 417 480 34,000  Level FlightAware Transoceanic
09:19AM 52.1029 -24.1496 271° West 417 480 34,000  Level FlightAware Transoceanic
09:20AM 52.1041 -24.3386 271° West 417 480 34,000  Level FlightAware Transoceanic
09:21AM 52.1050 -24.5276 270° West 417 480 34,000  Level FlightAware Transoceanic
09:22AM 52.1056 -24.7165 270° West 417 480 34,000  Level FlightAware Transoceanic
09:23AM 52.1059 -24.9055 270° West 417 480 34,000  Level FlightAware Transoceanic
09:24AM 52.1059 -25.0945 270° West 417 480 34,000  Level FlightAware Transoceanic
09:25AM 52.1056 -25.2835 270° West 417 480 34,000  Level FlightAware Transoceanic
09:26AM 52.1050 -25.4724 270° West 417 480 34,000  Level FlightAware Transoceanic
09:27AM 52.1041 -25.6614 269° West 417 480 34,000  Level FlightAware Transoceanic
09:28AM 52.1029 -25.8504 269° West 417 480 34,000  Level FlightAware Transoceanic
09:29AM 52.1014 -26.0393 269° West 417 480 34,000  Level FlightAware Transoceanic
09:30AM 52.0995 -26.2282 269° West 417 480 34,000  Level FlightAware Transoceanic
09:31AM 52.0974 -26.4172 269° West 417 480 34,000  Level FlightAware Transoceanic
09:32AM 52.0950 -26.6061 269° West 417 480 34,000  Level FlightAware Transoceanic
09:33AM 52.0923 -26.7949 269° West 417 480 34,000  Level FlightAware Transoceanic
09:34AM 52.0893 -26.9838 268° West 417 480 34,000  Level FlightAware Transoceanic
09:35AM 52.0860 -27.1726 268° West 417 480 34,000  Level FlightAware Transoceanic
09:36AM 52.0823 -27.3614 268° West 417 480 34,000  Level FlightAware Transoceanic
09:37AM 52.0784 -27.5501 268° West 417 480 34,000  Level FlightAware Transoceanic
09:38AM 52.0742 -27.7389 268° West 417 480 34,000  Level FlightAware Transoceanic
09:39AM 52.0696 -27.9276 268° West 417 480 34,000  Level FlightAware Transoceanic
09:40AM 52.0648 -28.1162 268° West 417 480 34,000  Level FlightAware Transoceanic
09:41AM 52.0597 -28.3048 267° West 417 480 34,000  Level FlightAware Transoceanic
09:42AM 52.0543 -28.4934 267° West 417 480 34,000  Level FlightAware Transoceanic
09:43AM 52.0485 -28.6819 267° West 417 480 34,000  Level FlightAware Transoceanic
09:43AM 52.0446 -28.8076 267° West 417 480 34,000  Level FlightAware Transoceanic
09:44AM 52.0425 -28.8704 267° West 417 480 34,000  Level FlightAware Transoceanic
09:45AM 52.0362 -29.0588 267° West 417 480 34,000  Level FlightAware Transoceanic
09:45AM 52.0362 -29.0588 267° West 417 480 34,000  Level FlightAware Transoceanic
09:46AM 52.0295 -29.2472 267° West 417 480 34,000  Level FlightAware Transoceanic
09:46AM 52.0295 -29.2472 267° West 417 480 34,000  Level FlightAware Transoceanic
09:47AM 52.0226 -29.4355 267° West 417 480 34,000  Level FlightAware Transoceanic
09:47AM 52.0226 -29.4355 267° West 417 480 34,000  Level FlightAware Transoceanic
09:48AM 52.0154 -29.6237 266° West 417 480 34,000  Level FlightAware Transoceanic
09:48AM 52.0154 -29.6237 266° West 417 480 34,000  Level FlightAware Transoceanic
09:49AM 52.0078 -29.8119 266° West 417 480 34,000  Level FlightAware Transoceanic
09:49AM 52.0078 -29.8119 266° West 417 480 34,000  Level FlightAware Transoceanic
09:50AM 52.0001 -29.9971 266° West  Level FlightAware Approximate
09:50AM 52.0001 -29.9971 266° West  Level FlightAware Approximate
09:51AM 51.9924 -30.1822 266° West  Level FlightAware Approximate
09:51AM 51.9924 -30.1822 266° West  Level FlightAware Approximate
09:52AM 52.0075 -30.1794 274° West  Level FlightAware Approximate
09:52AM 52.0075 -30.1794 274° West  Level FlightAware Approximate
09:53AM 52.0149 -30.3646 274° West  Level FlightAware Approximate
09:53AM 52.0149 -30.3646 274° West  Level FlightAware Approximate
09:54AM 52.0220 -30.5499 274° West  Level FlightAware Approximate
09:54AM 52.0220 -30.5499 274° West  Level FlightAware Approximate
09:55AM 52.0289 -30.7353 274° West  Level FlightAware Approximate
09:55AM 52.0289 -30.7353 274° West  Level FlightAware Approximate
09:56AM 52.0355 -30.9208 273° West  Level FlightAware Approximate
09:56AM 52.0355 -30.9208 273° West  Level FlightAware Approximate
09:57AM 52.0417 -31.1063 273° West  Level FlightAware Approximate
09:57AM 52.0417 -31.1063 273° West  Level FlightAware Approximate
09:58AM 52.0477 -31.2918 273° West  Level FlightAware Approximate
09:58AM 52.0477 -31.2918 273° West  Level FlightAware Approximate
09:59AM 52.0534 -31.4774 273° West  Level FlightAware Approximate
09:59AM 52.0534 -31.4774 273° West  Level FlightAware Approximate
10:00AM 52.0588 -31.6630 273° West  Level FlightAware Approximate
10:00AM 52.0588 -31.6630 273° West  Level FlightAware Approximate
10:01AM 52.0639 -31.8487 273° West  Level FlightAware Approximate
10:01AM 52.0639 -31.8487 273° West  Level FlightAware Approximate
10:02AM 52.0687 -32.0344 272° West  Level FlightAware Approximate
10:02AM 52.0687 -32.0344 272° West  Level FlightAware Approximate
10:03AM 52.0732 -32.2202 272° West  Level FlightAware Approximate
10:03AM 52.0732 -32.2202 272° West  Level FlightAware Approximate
10:04AM 52.0774 -32.4060 272° West  Level FlightAware Approximate
10:04AM 52.0774 -32.4060 272° West  Level FlightAware Approximate
10:05AM 52.0814 -32.5918 272° West  Level FlightAware Approximate
10:05AM 52.0814 -32.5918 272° West  Level FlightAware Approximate
10:06AM 52.0850 -32.7777 272° West  Level FlightAware Approximate
10:06AM 52.0850 -32.7777 272° West  Level FlightAware Approximate
10:07AM 52.0884 -32.9636 272° West  Level FlightAware Approximate
10:07AM 52.0884 -32.9636 272° West  Level FlightAware Approximate
10:08AM 52.0914 -33.1495 272° West  Level FlightAware Approximate
10:08AM 52.0914 -33.1495 272° West  Level FlightAware Approximate
10:09AM 52.0942 -33.3354 271° West  Level FlightAware Approximate
10:09AM 52.0942 -33.3354 271° West  Level FlightAware Approximate
10:10AM 52.0967 -33.5214 271° West  Level FlightAware Approximate
10:10AM 52.0967 -33.5214 271° West  Level FlightAware Approximate
10:11AM 52.0989 -33.7074 271° West  Level FlightAware Approximate
10:11AM 52.0989 -33.7074 271° West  Level FlightAware Approximate
10:12AM 52.1007 -33.8934 271° West  Level FlightAware Approximate
10:12AM 52.1007 -33.8934 271° West  Level FlightAware Approximate
10:13AM 52.1023 -34.0794 271° West  Level FlightAware Approximate
10:13AM 52.1023 -34.0794 271° West  Level FlightAware Approximate
10:14AM 52.1036 -34.2654 271° West  Level FlightAware Approximate
10:14AM 52.1036 -34.2654 271° West  Level FlightAware Approximate
10:15AM 52.1047 -34.4515 271° West  Level FlightAware Approximate
10:15AM 52.1047 -34.4515 271° West  Level FlightAware Approximate
10:16AM 52.1054 -34.6375 270° West  Level FlightAware Approximate
10:16AM 52.1054 -34.6375 270° West  Level FlightAware Approximate
10:17AM 52.1058 -34.8235 270° West  Level FlightAware Approximate
10:17AM 52.1058 -34.8235 270° West  Level FlightAware Approximate
10:18AM 52.1059 -35.0096 270° West  Level FlightAware Approximate
10:18AM 52.1059 -35.0096 270° West  Level FlightAware Approximate
10:19AM 52.1058 -35.1956 270° West  Level FlightAware Approximate
10:19AM 52.1058 -35.1956 270° West  Level FlightAware Approximate
10:20AM 52.1053 -35.3817 270° West  Level FlightAware Approximate
10:20AM 52.1053 -35.3817 270° West  Level FlightAware Approximate
10:21AM 52.1046 -35.5677 270° West  Level FlightAware Approximate
10:21AM 52.1046 -35.5677 270° West  Level FlightAware Approximate
10:22AM 52.1035 -35.7538 270° West  Level FlightAware Approximate
10:22AM 52.1035 -35.7538 270° West  Level FlightAware Approximate
10:23AM 52.1022 -35.9398 269° West  Level FlightAware Approximate
10:23AM 52.1022 -35.9398 269° West  Level FlightAware Approximate
10:24AM 52.1006 -36.1258 269° West  Level FlightAware Approximate
10:24AM 52.1006 -36.1258 269° West  Level FlightAware Approximate
10:25AM 52.0987 -36.3118 269° West  Level FlightAware Approximate
10:25AM 52.0987 -36.3118 269° West  Level FlightAware Approximate
10:26AM 52.0964 -36.4978 269° West  Level FlightAware Approximate
10:26AM 52.0964 -36.4978 269° West  Level FlightAware Approximate
10:27AM 52.0939 -36.6838 269° West  Level FlightAware Approximate
10:27AM 52.0939 -36.6838 269° West  Level FlightAware Approximate
10:28AM 52.0911 -36.8697 269° West  Level FlightAware Approximate
10:28AM 52.0911 -36.8697 269° West  Level FlightAware Approximate
10:29AM 52.0881 -37.0556 269° West  Level FlightAware Approximate
10:29AM 52.0881 -37.0556 269° West  Level FlightAware Approximate
10:30AM 52.0847 -37.2415 268° West  Level FlightAware Approximate
10:30AM 52.0847 -37.2415 268° West  Level FlightAware Approximate
10:31AM 52.0810 -37.4274 268° West  Level FlightAware Approximate
10:31AM 52.0810 -37.4274 268° West  Level FlightAware Approximate
10:32AM 52.0770 -37.6132 268° West  Level FlightAware Approximate
10:32AM 52.0770 -37.6132 268° West  Level FlightAware Approximate
10:33AM 52.0728 -37.7990 268° West  Level FlightAware Approximate
10:33AM 52.0728 -37.7990 268° West  Level FlightAware Approximate
10:34AM 52.0682 -37.9847 268° West  Level FlightAware Approximate
10:34AM 52.0682 -37.9847 268° West  Level FlightAware Approximate
10:35AM 52.0634 -38.1705 268° West  Level FlightAware Approximate
10:35AM 52.0634 -38.1705 268° West  Level FlightAware Approximate
10:36AM 52.0583 -38.3561 267° West  Level FlightAware Approximate
10:36AM 52.0583 -38.3561 267° West  Level FlightAware Approximate
10:37AM 52.0528 -38.5418 267° West  Level FlightAware Approximate
10:37AM 52.0528 -38.5418 267° West  Level FlightAware Approximate
10:38AM 52.0471 -38.7274 267° West  Level FlightAware Approximate
10:38AM 52.0471 -38.7274 267° West  Level FlightAware Approximate
10:39AM 52.0411 -38.9129 267° West  Level FlightAware Approximate
10:39AM 52.0411 -38.9129 267° West  Level FlightAware Approximate
10:40AM 52.0348 -39.0984 267° West  Level FlightAware Approximate
10:40AM 52.0348 -39.0984 267° West  Level FlightAware Approximate
10:41AM 52.0282 -39.2838 267° West  Level FlightAware Approximate
10:41AM 52.0282 -39.2838 267° West  Level FlightAware Approximate
10:42AM 52.0213 -39.4692 267° West  Level FlightAware Approximate
10:42AM 52.0213 -39.4692 267° West  Level FlightAware Approximate
10:43AM 52.0141 -39.6545 266° West  Level FlightAware Approximate
10:43AM 52.0141 -39.6545 266° West  Level FlightAware Approximate
10:44AM 52.0067 -39.8398 266° West  Level FlightAware Approximate
10:44AM 52.0067 -39.8398 266° West  Level FlightAware Approximate
10:45AM 51.9963 -40.0243 256° West  Level FlightAware Approximate
10:45AM 51.9963 -40.0243 256° West  Level FlightAware Approximate
10:46AM 51.9687 -40.2043 256° West  Level FlightAware Approximate
10:46AM 51.9687 -40.2043 256° West  Level FlightAware Approximate
10:47AM 51.9409 -40.3842 256° West  Level FlightAware Approximate
10:47AM 51.9409 -40.3842 256° West  Level FlightAware Approximate
10:48AM 51.9128 -40.5638 256° West  Level FlightAware Approximate
10:48AM 51.9128 -40.5638 256° West  Level FlightAware Approximate
10:49AM 51.8844 -40.7432 256° West  Level FlightAware Approximate
10:49AM 51.8844 -40.7432 256° West  Level FlightAware Approximate
10:50AM 51.8557 -40.9223 256° West  Level FlightAware Approximate
10:50AM 51.8557 -40.9223 256° West  Level FlightAware Approximate
10:51AM 51.8268 -41.1013 255° West  Level FlightAware Approximate
10:51AM 51.8268 -41.1013 255° West  Level FlightAware Approximate
10:52AM 51.7976 -41.2800 255° West  Level FlightAware Approximate
10:52AM 51.7976 -41.2800 255° West  Level FlightAware Approximate
10:53AM 51.7681 -41.4584 255° West  Level FlightAware Approximate
10:53AM 51.7681 -41.4584 255° West  Level FlightAware Approximate
10:54AM 51.7383 -41.6367 255° West  Level FlightAware Approximate
10:54AM 51.7383 -41.6367 255° West  Level FlightAware Approximate
10:55AM 51.7083 -41.8146 255° West  Level FlightAware Approximate
10:55AM 51.7083 -41.8146 255° West  Level FlightAware Approximate
10:56AM 51.6780 -41.9924 255° West  Level FlightAware Approximate
10:56AM 51.6780 -41.9924 255° West  Level FlightAware Approximate
10:57AM 51.6475 -42.1699 255° West  Level FlightAware Approximate
10:57AM 51.6475 -42.1699 255° West  Level FlightAware Approximate
10:58AM 51.6166 -42.3472 254° West  Level FlightAware Approximate
10:58AM 51.6166 -42.3472 254° West  Level FlightAware Approximate
10:59AM 51.5856 -42.5242 254° West  Level FlightAware Approximate
10:59AM 51.5856 -42.5242 254° West  Level FlightAware Approximate
11:00AM 51.5542 -42.7010 254° West  Level FlightAware Approximate
11:00AM 51.5542 -42.7010 254° West  Level FlightAware Approximate
11:01AM 51.5226 -42.8776 254° West  Level FlightAware Approximate
11:01AM 51.5226 -42.8776 254° West  Level FlightAware Approximate
11:02AM 51.4907 -43.0539 254° West  Level FlightAware Approximate
11:02AM 51.4907 -43.0539 254° West  Level FlightAware Approximate
11:03AM 51.4586 -43.2299 254° West  Level FlightAware Approximate
11:03AM 51.4586 -43.2299 254° West  Level FlightAware Approximate
11:04AM 51.4262 -43.4058 254° West  Level FlightAware Approximate
11:04AM 51.4262 -43.4058 254° West  Level FlightAware Approximate
11:05AM 51.3935 -43.5813 253° West  Level FlightAware Approximate
11:05AM 51.3935 -43.5813 253° West  Level FlightAware Approximate
11:06AM 51.3605 -43.7566 253° West  Level FlightAware Approximate
11:06AM 51.3605 -43.7566 253° West  Level FlightAware Approximate
11:07AM 51.3273 -43.9317 253° West  Level FlightAware Approximate
11:07AM 51.3273 -43.9317 253° West  Level FlightAware Approximate
11:08AM 51.2939 -44.1065 253° West  Level FlightAware Approximate
11:08AM 51.2939 -44.1065 253° West  Level FlightAware Approximate
11:09AM 51.2602 -44.2810 253° West  Level FlightAware Approximate
11:09AM 51.2602 -44.2810 253° West  Level FlightAware Approximate
11:10AM 51.2262 -44.4553 253° West  Level FlightAware Approximate
11:10AM 51.2262 -44.4553 253° West  Level FlightAware Approximate
11:11AM 51.1920 -44.6293 253° West  Level FlightAware Approximate
11:11AM 51.1920 -44.6293 253° West  Level FlightAware Approximate
11:12AM 51.1575 -44.8031 252° West  Level FlightAware Approximate
11:12AM 51.1575 -44.8031 252° West  Level FlightAware Approximate
11:13AM 51.1227 -44.9766 252° West  Level FlightAware Approximate
11:13AM 51.1227 -44.9766 252° West  Level FlightAware Approximate
11:14AM 51.0877 -45.1499 252° West  Level FlightAware Approximate
11:14AM 51.0877 -45.1499 252° West  Level FlightAware Approximate
11:15AM 51.0524 -45.3228 252° West  Level FlightAware Approximate
11:15AM 51.0524 -45.3228 252° West  Level FlightAware Approximate
11:16AM 51.0169 -45.4956 252° West  Level FlightAware Approximate
11:16AM 51.0169 -45.4956 252° West  Level FlightAware Approximate
11:17AM 50.9812 -45.6680 252° West  Level FlightAware Approximate
11:17AM 50.9812 -45.6680 252° West  Level FlightAware Approximate
11:18AM 50.9451 -45.8402 252° West  Level FlightAware Approximate
11:18AM 50.9451 -45.8402 252° West  Level FlightAware Approximate
11:19AM 50.9089 -46.0121 252° West  Level FlightAware Approximate
11:19AM 50.9089 -46.0121 252° West  Level FlightAware Approximate
11:20AM 50.8723 -46.1838 251° West  Level FlightAware Approximate
11:20AM 50.8723 -46.1838 251° West  Level FlightAware Approximate
11:21AM 50.8355 -46.3551 251° West  Level FlightAware Approximate
11:21AM 50.8355 -46.3551 251° West  Level FlightAware Approximate
11:22AM 50.7985 -46.5263 251° West  Level FlightAware Approximate
11:22AM 50.7985 -46.5263 251° West  Level FlightAware Approximate
11:23AM 50.7612 -46.6971 251° West  Level FlightAware Approximate
11:23AM 50.7612 -46.6971 251° West  Level FlightAware Approximate
11:24AM 50.7237 -46.8677 251° West  Level FlightAware Approximate
11:24AM 50.7237 -46.8677 251° West  Level FlightAware Approximate
11:25AM 50.6859 -47.0380 251° West  Level FlightAware Approximate
11:25AM 50.6859 -47.0380 251° West  Level FlightAware Approximate
11:26AM 50.6479 -47.2080 251° West  Level FlightAware Approximate
11:27AM 50.6096 -47.3777 250° West  Level FlightAware Approximate
11:28AM 50.5711 -47.5472 250° West  Level FlightAware Approximate
11:29AM 50.5333 -47.7169 251° West  Level FlightAware Approximate
11:30AM 50.4953 -47.8864 251° West  Level FlightAware Approximate
11:31AM 50.4571 -48.0556 251° West  Level FlightAware Approximate
11:32AM 50.4187 -48.2245 250° West  Level FlightAware Approximate
11:33AM 50.3800 -48.3932 250° West  Level FlightAware Approximate
11:34AM 50.3410 -48.5616 250° West  Level FlightAware Approximate
11:35AM 50.3026 -48.7265 250° West  Level FlightAware Approximate
11:36AM 50.2640 -48.8912 250° West  Level FlightAware Approximate
11:37AM 50.2251 -49.0555 250° West  Level FlightAware Approximate
11:38AM 50.1860 -49.2196 250° West  Level FlightAware Approximate
11:39AM 50.1466 -49.3834 250° West  Level FlightAware Approximate
11:39AM 49.9000 -50.3667 250° West 420 483 34,000  Level Moncton Center
11:40AM 49.8667 -50.5333 253° West 420 483 34,000  Level Moncton Center
11:41AM 49.8167 -50.7000 245° Southwest 420 483 34,000  Level Moncton Center
11:42AM 49.7667 -50.8667 245° Southwest 420 483 34,000  Level Moncton Center
11:43AM 49.7167 -51.0500 247° West 420 483 34,000  Level Moncton Center
11:44AM 49.6667 -51.2167 245° Southwest 420 483 34,000  Level Moncton Center
11:45AM 49.6333 -51.3833 253° West 420 483 34,000 480 Level Gander Center
11:46AM 49.5833 -51.5500 245° Southwest 420 483 35,000 960 Climbing Gander Center
11:47AM 49.5333 -51.6833 240° Southwest 410 472 36,000 480 Climbing Gander Center
11:48AM 49.5000 -51.8667 254° West 410 472 36,000  Level Gander Center
11:49AM 49.4500 -52.0167 243° Southwest 410 472 36,000  Level Gander Center
11:50AM 49.4000 -52.1667 243° Southwest 410 472 36,000  Level Gander Center
11:51AM 49.3500 -52.3333 245° Southwest 410 472 36,000  Level Moncton Center
11:52AM 49.3000 -52.5000 245° Southwest 410 472 36,000  Level Moncton Center
11:53AM 49.2500 -52.6667 245° Southwest 410 472 36,000  Level Moncton Center
11:54AM 49.2167 -52.8167 251° West 420 483 36,000  Level Moncton Center
11:55AM 49.1667 -52.9833 245° Southwest 420 483 36,000  Level Moncton Center
11:56AM 49.1000 -53.1333 236° Southwest 420 483 36,000  Level Gander Center
11:57AM 49.0667 -53.2833 251° West 420 483 36,000  Level Moncton Center
11:58AM 49.0167 -53.4667 247° West 420 483 36,000  Level Moncton Center
11:59AM 48.9500 -53.6167 236° Southwest 420 483 36,000  Level Moncton Center
12:00PM 48.9167 -53.8000 255° West 420 483 36,000  Level Gander Center
12:01PM 48.8667 -53.9333 240° Southwest 420 483 36,000  Level Gander Center
12:02PM 48.8000 -54.1000 239° Southwest 410 472 36,000  Level Gander Center
12:03PM 48.7667 -54.2500 251° West 410 472 36,000  Level Gander Center
12:04PM 48.7000 -54.4167 239° Southwest 410 472 36,000  Level Gander Center
12:05PM 48.6667 -54.5667 251° West 410 472 36,000  Level Gander Center
12:06PM 48.6167 -54.7333 246° West 410 472 36,000  Level Gander Center
12:08PM 48.5167 -55.0333 243° Southwest 400 460 36,000  Level Moncton Center
12:09PM 48.4667 -55.1667 241° Southwest 400 460 36,000  Level Moncton Center
12:10PM 48.4167 -55.3333 246° West 400 460 36,000  Level Moncton Center
12:11PM 48.3667 -55.4833 243° Southwest 400 460 36,000  Level Moncton Center
12:12PM 48.3167 -55.6167 241° Southwest 400 460 36,000  Level Moncton Center
12:13PM 48.2667 -55.7833 246° West 410 472 36,000  Level Moncton Center
12:13PM 48.2667 -55.7833 246° West 400 460 36,000  Level Gander Center
12:14PM 48.2000 -55.9333 236° Southwest 410 472 36,000  Level Gander Center
12:15PM 48.1667 -56.1000 253° West 410 472 36,000  Level Gander Center
12:21PM 47.8680 -57.0350 253° West 405 466 36,000  Level FlightAware
12:22PM 47.8290 -57.1440 242° Southwest 402 463 36,000  Level FlightAware
12:22PM 47.7940 -57.2410 242° Southwest 399 459 36,000  Level FlightAware
12:23PM 47.7540 -57.3510 242° Southwest 396 456 36,000  Level FlightAware
12:24PM 47.7210 -57.4430 242° Southwest 395 455 36,000  Level FlightAware
12:25PM 47.6860 -57.5400 242° Southwest 394 453 36,000  Level FlightAware
12:25PM 47.6490 -57.6400 241° Southwest 394 453 36,000  Level FlightAware
12:26PM 47.6140 -57.7350 241° Southwest 393 452 36,000  Level FlightAware
12:27PM 47.5780 -57.8340 242° Southwest 392 451 36,000  Level FlightAware
12:27PM 47.5420 -57.9300 241° Southwest 392 451 36,000  Level FlightAware
12:28PM 47.5030 -58.0350 241° Southwest 393 452 36,000  Level FlightAware
12:29PM 47.4700 -58.1240 241° Southwest 394 453 36,000  Level FlightAware
12:29PM 47.4350 -58.2180 241° Southwest 395 455 36,000  Level FlightAware
12:31PM 47.3710 -58.3900 241° Southwest 394 453 36,000  Level FlightAware
12:31PM 47.3300 -58.4980 241° Southwest 394 453 36,000  Level FlightAware
12:32PM 47.2930 -58.5940 240° Southwest 393 452 36,000  Level FlightAware
12:33PM 47.2550 -58.6960 241° Southwest 393 452 36,000  Level FlightAware
12:33PM 47.2170 -58.7940 240° Southwest 393 452 36,000  Level FlightAware
12:34PM 47.1810 -58.8880 241° Southwest 393 452 36,000  Level FlightAware
12:35PM 47.1440 -58.9850 241° Southwest 394 453 36,000  Level FlightAware
12:36PM 47.1060 -59.0830 240° Southwest 394 453 36,000  Level FlightAware
12:36PM 47.0660 -59.1860 240° Southwest 394 453 36,000  Level FlightAware
12:37PM 47.0300 -59.2770 240° Southwest 394 453 36,000  Level FlightAware
12:38PM 46.9890 -59.3820 240° Southwest 395 455 36,000  Level FlightAware
12:39PM 46.9350 -59.5210 240° Southwest 395 455 36,000  Level FlightAware
12:40PM 46.8500 -59.7370 240° Southwest 396 456 36,000  Level FlightAware
12:41PM 46.8160 -59.8220 240° Southwest 396 456 36,000  Level FlightAware
12:42PM 46.7740 -59.9270 240° Southwest 397 457 36,000  Level FlightAware
12:42PM 46.7370 -60.0190 240° Southwest 397 457 36,000  Level FlightAware
12:43PM 46.6980 -60.1160 240° Southwest 398 458 36,000  Level FlightAware
12:44PM 46.6580 -60.2180 240° Southwest 398 458 36,000  Level FlightAware
12:44PM 46.6200 -60.3110 239° Southwest 398 458 36,000  Level FlightAware
12:45PM 46.5790 -60.4110 239° Southwest 398 458 36,000  Level FlightAware
12:46PM 46.5380 -60.5120 239° Southwest 397 457 36,000  Level FlightAware
12:47PM 46.4990 -60.6090 240° Southwest 397 457 36,000  Level FlightAware
12:47PM 46.4620 -60.6990 239° Southwest 397 457 36,000  Level FlightAware
12:48PM 46.4240 -60.7920 239° Southwest 396 456 36,000  Level FlightAware
12:49PM 46.3830 -60.8910 239° Southwest 395 455 36,000  Level FlightAware
12:49PM 46.3490 -60.9730 239° Southwest 393 452 36,000  Level FlightAware
12:50PM 46.3120 -61.0620 239° Southwest 392 451 36,000  Level FlightAware
12:51PM 46.2710 -61.1610 239° Southwest 390 449 36,000  Level FlightAware
12:51PM 46.2380 -61.2410 239° Southwest 389 448 36,000  Level FlightAware
12:52PM 46.2020 -61.3250 238° Southwest 388 447 36,000  Level FlightAware
12:53PM 46.1620 -61.4220 239° Southwest 386 444 36,000  Level FlightAware
12:53PM 46.1280 -61.5010 238° Southwest 388 447 36,000  Level FlightAware
12:54PM 46.0910 -61.5890 239° Southwest 388 447 36,000  Level FlightAware
12:55PM 46.0490 -61.6880 239° Southwest 389 448 36,000  Level FlightAware
12:55PM 46.0090 -61.7820 239° Southwest 389 448 36,000  Level FlightAware
12:56PM 45.9680 -61.8750 238° Southwest 389 448 36,000  Level FlightAware
12:57PM 45.9100 -62.0140 239° Southwest 391 450 36,000  Level FlightAware
12:58PM 45.8800 -62.0830 238° Southwest 391 450 36,000  Level FlightAware
12:59PM 45.8410 -62.1710 238° Southwest 391 450 36,000  Level FlightAware
12:59PM 45.8120 -62.2380 238° Southwest 391 450 36,000  Level FlightAware
01:00PM 45.7540 -62.3710 238° Southwest 391 450 36,000  Level FlightAware
01:01PM 45.7160 -62.4590 238° Southwest 391 450 36,000  Level FlightAware
01:02PM 45.6860 -62.5280 238° Southwest 391 450 36,000  Level FlightAware
01:02PM 45.6560 -62.5950 237° Southwest 391 450 36,000  Level FlightAware
01:03PM 45.6220 -62.6730 238° Southwest 391 450 36,000  Level FlightAware
01:04PM 45.5820 -62.7650 238° Southwest 391 450 36,000  Level FlightAware
01:04PM 45.5520 -62.8340 238° Southwest 391 450 36,000 960 Level FlightAware
01:05PM 45.4510 -63.0670 238° Southwest 38,000 1,380 Climbing FlightAware
01:06PM 45.4060 -63.1670 237° Southwest 395 455 38,000  Level FlightAware
01:07PM 45.3530 -63.2870 238° Southwest 396 456 38,000  Level FlightAware
01:07PM 45.3130 -63.3750 237° Southwest 396 456 38,000  Level FlightAware
01:08PM 45.2740 -63.4630 238° Southwest 396 456 38,000  Level FlightAware
01:09PM 45.2300 -63.5600 237° Southwest 394 453 38,000  Level FlightAware
01:10PM 45.1810 -63.6680 237° Southwest 393 452 38,000  Level FlightAware
01:10PM 45.1430 -63.7520 237° Southwest 392 451 38,000  Level FlightAware
01:11PM 45.1180 -63.8080 238° Southwest 392 451 38,000  Level FlightAware
01:11PM 45.0740 -63.9040 237° Southwest 391 450 38,000  Level FlightAware
01:12PM 45.0280 -64.0050 237° Southwest 390 449 38,000  Level FlightAware
01:13PM 44.9870 -64.0940 237° Southwest 389 448 38,000  Level FlightAware
01:14PM 44.9460 -64.1840 237° Southwest 389 448 38,000  Level FlightAware
01:14PM 44.9030 -64.2770 237° Southwest 388 447 38,000  Level FlightAware
01:15PM 44.8760 -64.3350 237° Southwest 389 448 38,000  Level FlightAware
01:16PM 44.8180 -64.4590 237° Southwest 389 448 38,000  Level FlightAware
01:17PM 44.7780 -64.5450 237° Southwest 389 448 38,000  Level FlightAware
01:17PM 44.7370 -64.6320 236° Southwest 389 448 38,000  Level FlightAware
01:18PM 44.6920 -64.7290 237° Southwest 388 447 38,000  Level FlightAware
01:19PM 44.6520 -64.8140 237° Southwest 389 448 38,000  Level FlightAware
01:19PM 44.6110 -64.9000 236° Southwest 390 449 38,000  Level FlightAware
01:20PM 44.5710 -64.9860 237° Southwest 392 451 38,000  Level FlightAware
01:21PM 44.5340 -65.0630 236° Southwest 393 452 38,000  Level FlightAware
01:21PM 44.4950 -65.1450 236° Southwest 394 453 38,000  Level FlightAware
01:22PM 44.4500 -65.2390 236° Southwest 394 453 38,000  Level FlightAware
01:23PM 44.4050 -65.3330 236° Southwest 394 453 38,000  Level FlightAware
01:23PM 44.3640 -65.4190 236° Southwest 396 456 38,000  Level FlightAware
01:24PM 44.3170 -65.5160 236° Southwest 397 457 38,000  Level FlightAware
01:25PM 44.2780 -65.5970 236° Southwest 397 457 38,000  Level FlightAware
01:25PM 44.2450 -65.6660 236° Southwest 397 457 38,000  Level FlightAware
01:26PM 44.1980 -65.7610 235° Southwest 397 457 38,000  Level FlightAware
01:27PM 44.1590 -65.8420 236° Southwest 397 457 38,000  Level FlightAware
01:27PM 44.1180 -65.9260 236° Southwest 398 458 38,000  Level FlightAware
01:28PM 44.0790 -66.0040 235° Southwest 398 458 38,000  Level FlightAware
01:29PM 44.0250 -66.1120 235° Southwest 399 459 38,000  Level FlightAware
01:29PM 44.0040 -66.1550 236° Southwest 399 459 38,000  Level FlightAware
01:30PM 43.9940 -66.1740 234° Southwest 399 459 38,000  Level FlightAware
01:31PM 43.9010 -66.3580 235° Southwest 399 459 38,000  Level FlightAware
01:32PM 43.8130 -66.5410 236° Southwest 401 461 38,000  Level FlightAware
01:33PM 43.7910 -66.5840 235° Southwest 401 461 38,000  Level FlightAware
01:33PM 43.7540 -66.6570 235° Southwest 401 461 38,000  Level FlightAware
01:34PM 43.7120 -66.7390 235° Southwest 401 461 38,000  Level FlightAware
01:35PM 43.6570 -66.8480 235° Southwest 401 461 38,000  Level FlightAware
01:36PM 43.6240 -66.9140 235° Southwest 401 461 38,000  Level FlightAware
01:37PM 43.5810 -66.9980 235° Southwest 401 461 38,000  Level FlightAware
01:37PM 43.5480 -67.0640 235° Southwest 401 461 38,000  Level FlightAware
01:38PM 43.5050 -67.1480 235° Southwest 401 461 38,000  Level FlightAware
01:39PM 43.4720 -67.2120 235° Southwest 401 461 38,000  Level FlightAware
01:39PM 43.4290 -67.2970 235° Southwest 401 461 38,000  Level FlightAware
01:40PM 43.3850 -67.3840 235° Southwest 401 461 38,000  Level FlightAware
01:41PM 43.3500 -67.4520 235° Southwest 401 461 38,000  Level FlightAware
01:42PM 43.3090 -67.5340 236° Southwest 401 461 38,000  Level FlightAware
01:42PM 43.3470 -67.8180 281° West 38,000  Level FlightAware
01:43PM 43.3110 -67.9440 249° West 396 456 38,000  Level FlightAware
01:43PM 43.2800 -68.0490 248° West 397 457 38,000  Level FlightAware
01:45PM 43.2340 -68.2080 248° West 397 457 38,000  Level FlightAware
01:46PM 43.1850 -68.3760 248° West 396 456 38,000  Level FlightAware
01:46PM 43.1570 -68.4700 248° West 397 457 38,000  Level FlightAware
01:47PM 43.1280 -68.5680 248° West 398 458 38,000  Level FlightAware
01:48PM 43.0980 -68.6690 248° West 398 458 38,000  Level FlightAware
01:49PM 43.0670 -68.7730 248° West 396 456 38,000  Level FlightAware
01:49PM 43.0420 -68.8560 248° West 396 456 38,000  Level FlightAware
01:50PM 43.0140 -68.9480 247° West 396 456 38,000  Level FlightAware
01:50PM 42.9870 -69.0370 248° West 397 457 38,000  Level FlightAware
01:51PM 42.9540 -69.1460 248° West 398 458 38,000  Level FlightAware
01:52PM 42.9260 -69.2380 247° West 397 457 38,000  Level FlightAware
01:53PM 42.8940 -69.3450 248° West 396 456 38,000  Level FlightAware
01:53PM 42.8660 -69.4350 247° West 395 455 38,000  Level FlightAware
01:54PM 42.8370 -69.5300 247° West 396 456 38,000  Level FlightAware
01:55PM 42.8050 -69.6340 247° West 397 457 38,000 -360 Level FlightAware
01:55PM 42.7760 -69.7250 247° West 393 452 37,500 -1,140 Descending FlightAware
01:56PM 42.7480 -69.8180 248° West 397 457 36,500 -1,500 Descending FlightAware
01:57PM 42.7160 -69.9190 247° West 405 466 35,400 -1,560 Descending FlightAware
01:57PM 42.6850 -70.0160 247° West 408 470 34,300 -1,080 Descending FlightAware
01:58PM 42.6560 -70.1090 247° West 405 466 34,000 -240 Descending FlightAware
01:59PM 42.6260 -70.2040 247° West 406 467 34,000  Level FlightAware
01:59PM 42.5960 -70.2970 246° West 409 471 34,000 -180 Level FlightAware
02:00PM 42.5620 -70.4020 246° West 407 468 33,800 -1,440 Descending FlightAware
02:01PM 42.5320 -70.4970 247° West 412 474 32,000 -2,940 Descending FlightAware
02:02PM 42.5010 -70.5920 246° West 420 483 29,900 -2,760 Descending FlightAware
02:02PM 42.4660 -70.6990 246° West 396 456 28,100 -1,800 Descending FlightAware
02:03PM 42.4440 -70.7920 252° West 394 453 27,400 -960 Descending FlightAware
02:04PM 42.4260 -70.8990 257° West 392 451 26,800 -900 Descending FlightAware
02:04PM 42.4100 -70.9950 257° West 387 445 26,200 -900 Descending FlightAware
02:05PM 42.3950 -71.0890 258° West 385 443 25,600 -900 Descending FlightAware
02:06PM 42.3780 -71.1950 258° West 388 447 25,000 -840 Descending FlightAware
02:07PM 42.3610 -71.3000 258° West 382 440 24,400 -840 Descending FlightAware
02:07PM 42.3450 -71.4030 258° West 375 432 23,800 -840 Descending FlightAware
02:08PM 42.3300 -71.4930 257° West 367 422 23,300 -780 Descending FlightAware
02:09PM 42.3160 -71.5820 258° West 363 418 22,800 -840 Descending FlightAware
02:09PM 42.2920 -71.6720 250° West 364 419 22,200 -840 Descending FlightAware
02:10PM 42.2650 -71.7560 247° West 362 417 21,700 -720 Descending FlightAware
02:11PM 42.2410 -71.8310 247° West 364 419 21,300 -720 Descending FlightAware
02:12PM 42.1950 -71.9700 246° West 355 409 20,400 -780 Descending FlightAware
02:13PM 42.1620 -72.0700 246° West 350 403 19,800 -840 Descending FlightAware
02:13PM 42.1350 -72.1490 245° Southwest 345 397 19,300 -780 Descending FlightAware
02:14PM 42.0930 -72.2760 246° West 344 396 18,500 -420 Descending FlightAware
02:16PM 42.0430 -72.4210 245° Southwest 342 394 18,300 -120 Descending FlightAware
02:16PM 42.0220 -72.4810 245° Southwest 342 394 18,300  Level FlightAware
02:17PM 41.9950 -72.5600 245° Southwest 342 394 18,300  Level FlightAware
02:18PM 41.9740 -72.6190 244° Southwest 342 394 18,300 -1,800 Level FlightAware
02:18PM 41.9247 -72.7525 244° Southwest 339 390 16,000 -1,380 Descending Boston Center
02:19PM 41.8972 -72.8697 253° West 339 390 16,000 -120 Level Boston Center
02:25PM 41.7450 -73.5520 253° West 329 379 15,200 -240 Descending FlightAware
02:26PM 41.7260 -73.6280 252° West 353 406 14,600 -1,020 Descending FlightAware
02:27PM 41.7030 -73.7220 252° West 345 397 13,800 -840 Descending FlightAware
02:27PM 41.6830 -73.8030 252° West 306 352 13,400 -660 Descending FlightAware
02:28PM 41.6713 -73.8503 252° West 290 334 13,100 -720 Descending FlightAware ADS-B
02:28PM 41.6646 -73.8778 252° West 276 318 12,900 -780 Descending FlightAware ADS-B
02:28PM 41.6570 -73.8990 244° Southwest 278 320 12,700 -1,200 Descending FlightAware ADS-B
02:28PM 41.6529 -73.9075 237° Southwest 279 321 12,500 -1,800 Descending FlightAware ADS-B
02:29PM 41.6494 -73.9140 234° Southwest 280 322 12,400 -1,680 Descending FlightAware ADS-B
02:29PM 41.6440 -73.9222 229° Southwest 284 327 12,200 -1,860 Descending FlightAware ADS-B
02:29PM 41.6377 -73.9301 223° Southwest 287 330 12,000 -1,620 Descending FlightAware ADS-B
02:29PM 41.6080 -73.9630 220° Southwest 290 334 11,200 -2,160 Descending FlightAware
02:30PM 41.5310 -74.0200 209° Southwest 295 339 8,500 -2,340 Descending FlightAware
02:31PM 41.5080 -74.0290 196° South 280 322 7,900 -1,800 Descending FlightAware
02:31PM 41.4950 -74.0390 210° Southwest 275 316 7,600 -480 Descending FlightAware
02:31PM 41.4690 -74.0570 207° Southwest 275 316 7,600 -600 Level FlightAware
02:32PM 41.4190 -74.1280 227° Southwest 261 300 6,800 -540 Descending FlightAware
02:33PM 41.3881 -74.1663 223° Southwest 263 303 6,800  Level FlightAware ADS-B
02:33PM 41.3735 -74.1842 223° Southwest 262 302 6,800  Level FlightAware ADS-B
02:34PM 41.3496 -74.2128 222° Southwest 261 300 6,800  Level FlightAware ADS-B
02:34PM 41.3417 -74.2213 219° Southwest 262 302 6,800  Level FlightAware ADS-B
02:34PM 41.3374 -74.2245 209° Southwest 264 304 6,800 -600 Level FlightAware ADS-B
02:34PM 41.3308 -74.2290 207° Southwest 264 304 6,700 -1,320 Descending FlightAware ADS-B
02:34PM 41.3064 -74.2427 203° Southwest 264 304 6,200 -1,200 Descending FlightAware ADS-B
02:35PM 41.2823 -74.2515 195° South 269 310 5,900 -900 Descending FlightAware ADS-B
02:35PM 41.2718 -74.2510 178° South 277 319 5,800 -600 Descending FlightAware ADS-B
02:36PM 41.2070 -74.2396 172° South 274 315 5,300 -660 Descending FlightAware ADS-B
02:36PM 41.1836 -74.2355 172° South 273 314 5,100 -720 Descending FlightAware ADS-B
02:36PM 41.1637 -74.2324 173° South 274 315 4,900 -300 Descending FlightAware ADS-B
02:37PM 41.1273 -74.2268 173° South 274 315 4,900  Level FlightAware ADS-B
02:37PM 41.1103 -74.2185 160° South 283 326 4,900  Level FlightAware ADS-B
02:37PM 41.0909 -74.2061 154° Southeast 286 329 4,900  Level FlightAware ADS-B
02:37PM 41.0720 -74.1938 154° Southeast 285 328 4,900  Level FlightAware ADS-B
02:38PM 41.0490 -74.1787 154° Southeast 284 327 4,900 -480 Level FlightAware ADS-B
02:38PM 41.0240 -74.1620 153° Southeast 280 322 4,600 -1,260 Descending FlightAware ADS-B
02:39PM 40.9819 -74.1346 154° Southeast 278 320 3,700 -1,320 Descending FlightAware ADS-B
02:39PM 40.9507 -74.1148 154° Southeast 272 313 3,200 -1,260 Descending FlightAware ADS-B
02:39PM 40.9371 -74.1064 155° Southeast 269 310 2,900 -540 Descending FlightAware ADS-B
02:40PM 40.9085 -74.0972 166° South 265 305 2,900  Level FlightAware ADS-B
02:40PM 40.9031 -74.0963 173° South 243 280 2,900  Level FlightAware ADS-B
02:40PM 40.8863 -74.0937 173° South 232 267 2,900  Level FlightAware ADS-B
02:40PM 40.8609 -74.0899 174° South 214 246 2,900 -300 Level FlightAware ADS-B
02:41PM 40.8442 -74.0874 174° South 203 234 2,700 -720 Descending FlightAware ADS-B
02:41PM 40.8374 -74.0863 173° South 198 228 2,600 -600 Descending FlightAware ADS-B
02:41PM 40.8348 -74.0860 175° South 194 223 2,600  Level FlightAware ADS-B
02:41PM 40.8312 -74.0863 184° South 188 216 2,600  Level FlightAware ADS-B
02:41PM 40.8286 -74.0869 190° South 187 215 2,600 -720 Level FlightAware ADS-B
02:41PM 40.8106 -74.0972 203° Southwest 160 184 2,300 -1,020 Descending FlightAware ADS-B
02:42PM 40.8056 -74.1002 204° Southwest 167 192 2,100 -1,920 Descending FlightAware ADS-B
02:42PM 40.7994 -74.1040 205° Southwest 179 206 1,800 -1,620 Descending FlightAware ADS-B
02:42PM 40.7888 -74.1114 208° Southwest 184 212 1,500 -1,080 Descending FlightAware ADS-B
02:42PM 40.7701 -74.1234 206° Southwest 171 197 1,100 -960 Descending FlightAware ADS-B
02:43PM 40.7617 -74.1289 206° Southwest 160 184 900 -900 Descending FlightAware ADS-B
02:43PM 40.7519 -74.1351 206° Southwest 150 173 700 -360 Descending FlightAware ADS-B
02:44PM 40.7300 -74.1490 206° Southwest 152 175 600 -180 Descending FlightAware